sensor_id;sensor_type;location;lat;lon;timestamp;pressure;altitude;pressure_sealevel;temperature;humidity
78407;BME280;67692;51.074;-1.790;2023-11-18T00:01:59;101251.22;;;9.11;100.00
78407;BME280;67692;51.074;-1.790;2023-11-18T00:04:25;101249.22;;;9.16;100.00
78407;BME280;67692;51.074;-1.790;2023-11-18T00:06:52;101252.66;;;9.16;100.00
78407;BME280;67692;51.074;-1.790;2023-11-18T00:09:19;101247.31;;;9.19;100.00
78407;BME280;67692;51.074;-1.790;2023-11-18T00:11:47;101232.53;;;9.21;100.00
78407;BME280;67692;51.074;-1.790;2023-11-18T00:14:14;101219.44;;;9.24;100.00
78407;BME280;67692;51.074;-1.790;2023-11-18T00:16:42;101212.47;;;9.27;100.00
78407;BME280;67692;51.074;-1.790;2023-11-18T00:19:08;101195.88;;;9.31;100.00
78407;BME280;67692;51.074;-1.790;2023-11-18T00:21:35;101187.22;;;9.32;100.00
78407;BME280;67692;51.074;-1.790;2023-11-18T00:24:02;101185.44;;;9.32;100.00
78407;BME280;67692;51.074;-1.790;2023-11-18T00:26:29;101193.19;;;9.32;100.00
78407;BME280;67692;51.074;-1.790;2023-11-18T00:28:55;101206.88;;;9.34;100.00
78407;BME280;67692;51.074;-1.790;2023-11-18T00:31:22;101201.53;;;9.37;100.00
78407;BME280;67692;51.074;-1.790;2023-11-18T00:33:51;101192.03;;;9.38;100.00
78407;BME280;67692;51.074;-1.790;2023-11-18T00:36:18;101172.03;;;9.41;100.00
78407;BME280;67692;51.074;-1.790;2023-11-18T00:38:44;101173.59;;;9.44;100.00
78407;BME280;67692;51.074;-1.790;2023-11-18T00:41:11;101174.34;;;9.46;100.00
78407;BME280;67692;51.074;-1.790;2023-11-18T00:43:38;101177.84;;;9.45;100.00
78407;BME280;67692;51.074;-1.790;2023-11-18T00:46:05;101165.00;;;9.43;100.00
78407;BME280;67692;51.074;-1.790;2023-11-18T00:48:31;101175.09;;;9.48;100.00
78407;BME280;67692;51.074;-1.790;2023-11-18T00:50:59;101163.72;;;9.50;100.00
78407;BME280;67692;51.074;-1.790;2023-11-18T00:53:26;101152.38;;;9.53;100.00
78407;BME280;67692;51.074;-1.790;2023-11-18T00:55:52;101143.88;;;9.51;100.00
78407;BME280;67692;51.074;-1.790;2023-11-18T00:58:19;101138.63;;;9.52;100.00
78407;BME280;67692;51.074;-1.790;2023-11-18T01:00:45;101143.69;;;9.54;100.00
78407;BME280;67692;51.074;-1.790;2023-11-18T01:03:12;101142.63;;;9.58;100.00
78407;BME280;67692;51.074;-1.790;2023-11-18T01:05:38;101131.59;;;9.54;100.00
78407;BME280;67692;51.074;-1.790;2023-11-18T01:08:07;101122.97;;;9.56;100.00
78407;BME280;67692;51.074;-1.790;2023-11-18T01:10:34;101127.13;;;9.58;100.00
78407;BME280;67692;51.074;-1.790;2023-11-18T01:13:00;101108.28;;;9.56;100.00
78407;BME280;67692;51.074;-1.790;2023-11-18T01:15:27;101101.25;;;9.58;100.00
78407;BME280;67692;51.074;-1.790;2023-11-18T01:17:53;101095.06;;;9.61;100.00
78407;BME280;67692;51.074;-1.790;2023-11-18T01:20:20;101088.25;;;9.60;100.00
78407;BME280;67692;51.074;-1.790;2023-11-18T01:22:47;101097.56;;;9.62;100.00
78407;BME280;67692;51.074;-1.790;2023-11-18T01:25:15;101099.22;;;9.63;100.00
78407;BME280;67692;51.074;-1.790;2023-11-18T01:27:44;101086.13;;;9.66;100.00
78407;BME280;67692;51.074;-1.790;2023-11-18T01:30:12;101086.22;;;9.65;100.00
78407;BME280;67692;51.074;-1.790;2023-11-18T01:32:39;101085.38;;;9.64;100.00
78407;BME280;67692;51.074;-1.790;2023-11-18T01:35:06;101075.78;;;9.66;100.00
78407;BME280;67692;51.074;-1.790;2023-11-18T01:37:33;101079.19;;;9.67;100.00
78407;BME280;67692;51.074;-1.790;2023-11-18T01:40:00;101083.38;;;9.69;100.00
78407;BME280;67692;51.074;-1.790;2023-11-18T01:42:31;101082.50;;;9.69;100.00
78407;BME280;67692;51.074;-1.790;2023-11-18T01:44:58;101080.03;;;9.67;100.00
78407;BME280;67692;51.074;-1.790;2023-11-18T01:47:29;101076.50;;;9.68;100.00
78407;BME280;67692;51.074;-1.790;2023-11-18T01:49:58;101078.84;;;9.73;100.00
78407;BME280;67692;51.074;-1.790;2023-11-18T01:52:25;101064.06;;;9.75;100.00
78407;BME280;67692;51.074;-1.790;2023-11-18T01:54:52;101064.72;;;9.78;100.00
78407;BME280;67692;51.074;-1.790;2023-11-18T01:57:20;101068.03;;;9.80;100.00
78407;BME280;67692;51.074;-1.790;2023-11-18T01:59:48;101061.94;;;9.81;100.00
78407;BME280;67692;51.074;-1.790;2023-11-18T02:02:15;101056.75;;;9.81;100.00
78407;BME280;67692;51.074;-1.790;2023-11-18T02:04:42;101051.44;;;9.84;100.00
78407;BME280;67692;51.074;-1.790;2023-11-18T02:07:10;101045.22;;;9.87;100.00
78407;BME280;67692;51.074;-1.790;2023-11-18T02:09:40;101051.25;;;9.88;100.00
78407;BME280;67692;51.074;-1.790;2023-11-18T02:12:19;101045.13;;;9.89;100.00
78407;BME280;67692;51.074;-1.790;2023-11-18T02:14:49;101024.34;;;9.90;100.00
78407;BME280;67692;51.074;-1.790;2023-11-18T02:17:20;101020.19;;;9.88;100.00
78407;BME280;67692;51.074;-1.790;2023-11-18T02:19:48;101014.00;;;9.90;100.00
78407;BME280;67692;51.074;-1.790;2023-11-18T02:22:15;101016.59;;;9.90;100.00
78407;BME280;67692;51.074;-1.790;2023-11-18T02:24:42;101019.06;;;9.92;100.00
78407;BME280;67692;51.074;-1.790;2023-11-18T02:27:10;101018.16;;;9.93;100.00
78407;BME280;67692;51.074;-1.790;2023-11-18T02:29:39;101017.97;;;9.96;100.00
78407;BME280;67692;51.074;-1.790;2023-11-18T02:32:09;101005.94;;;9.95;100.00
78407;BME280;67692;51.074;-1.790;2023-11-18T02:34:40;101008.53;;;9.95;100.00
78407;BME280;67692;51.074;-1.790;2023-11-18T02:37:10;100990.34;;;9.96;100.00
78407;BME280;67692;51.074;-1.790;2023-11-18T02:39:40;100999.75;;;9.97;100.00
78407;BME280;67692;51.074;-1.790;2023-11-18T02:42:09;100975.47;;;10.00;100.00
78407;BME280;67692;51.074;-1.790;2023-11-18T02:44:38;100983.25;;;10.00;100.00
78407;BME280;67692;51.074;-1.790;2023-11-18T02:47:05;100978.91;;;10.00;100.00
78407;BME280;67692;51.074;-1.790;2023-11-18T02:49:31;100982.31;;;10.01;100.00
78407;BME280;67692;51.074;-1.790;2023-11-18T02:51:58;100975.38;;;10.01;100.00
78407;BME280;67692;51.074;-1.790;2023-11-18T02:54:25;100972.69;;;10.03;100.00
78407;BME280;67692;51.074;-1.790;2023-11-18T02:56:51;100964.94;;;10.03;100.00
78407;BME280;67692;51.074;-1.790;2023-11-18T02:59:19;100958.00;;;10.03;100.00
78407;BME280;67692;51.074;-1.790;2023-11-18T03:01:46;100947.56;;;10.05;100.00
78407;BME280;67692;51.074;-1.790;2023-11-18T03:04:12;100948.28;;;10.07;100.00
78407;BME280;67692;51.074;-1.790;2023-11-18T03:06:40;100925.94;;;10.06;100.00
78407;BME280;67692;51.074;-1.790;2023-11-18T03:09:07;100927.69;;;10.05;100.00
78407;BME280;67692;51.074;-1.790;2023-11-18T03:11:35;100929.53;;;10.03;100.00
78407;BME280;67692;51.074;-1.790;2023-11-18T03:14:03;100922.59;;;10.04;100.00
78407;BME280;67692;51.074;-1.790;2023-11-18T03:16:31;100910.31;;;10.07;100.00
78407;BME280;67692;51.074;-1.790;2023-11-18T03:18:59;100905.97;;;10.08;100.00
78407;BME280;67692;51.074;-1.790;2023-11-18T03:21:26;100899.84;;;10.09;100.00
78407;BME280;67692;51.074;-1.790;2023-11-18T03:23:53;100901.50;;;10.10;100.00
78407;BME280;67692;51.074;-1.790;2023-11-18T03:26:19;100871.50;;;10.07;100.00
78407;BME280;67692;51.074;-1.790;2023-11-18T03:28:46;100879.16;;;10.09;100.00
78407;BME280;67692;51.074;-1.790;2023-11-18T03:31:12;100873.97;;;10.09;100.00
78407;BME280;67692;51.074;-1.790;2023-11-18T03:33:42;100867.88;;;10.10;100.00
78407;BME280;67692;51.074;-1.790;2023-11-18T03:36:09;100869.53;;;10.11;100.00
78407;BME280;67692;51.074;-1.790;2023-11-18T03:38:37;100864.25;;;10.12;100.00
78407;BME280;67692;51.074;-1.790;2023-11-18T03:41:04;100857.97;;;10.17;100.00
78407;BME280;67692;51.074;-1.790;2023-11-18T03:43:30;100854.34;;;10.19;100.00
78407;BME280;67692;51.074;-1.790;2023-11-18T03:45:57;100849.06;;;10.21;100.00
78407;BME280;67692;51.074;-1.790;2023-11-18T03:48:23;100823.97;;;10.23;100.00
78407;BME280;67692;51.074;-1.790;2023-11-18T03:50:51;100815.16;;;10.25;100.00
78407;BME280;67692;51.074;-1.790;2023-11-18T03:53:19;100824.56;;;10.26;100.00
78407;BME280;67692;51.074;-1.790;2023-11-18T03:55:45;100817.56;;;10.28;100.00
78407;BME280;67692;51.074;-1.790;2023-11-18T03:58:12;100789.09;;;10.28;100.00
78407;BME280;67692;51.074;-1.790;2023-11-18T04:00:38;100790.66;;;10.31;100.00
78407;BME280;67692;51.074;-1.790;2023-11-18T04:03:05;100787.13;;;10.32;100.00
78407;BME280;67692;51.074;-1.790;2023-11-18T04:05:33;100775.63;;;10.36;100.00
78407;BME280;67692;51.074;-1.790;2023-11-18T04:08:01;100767.97;;;10.34;100.00
78407;BME280;67692;51.074;-1.790;2023-11-18T04:10:28;100767.03;;;10.35;100.00
78407;BME280;67692;51.074;-1.790;2023-11-18T04:12:54;100750.56;;;10.36;100.00
78407;BME280;67692;51.074;-1.790;2023-11-18T04:15:21;100754.59;;;10.40;100.00
78407;BME280;67692;51.074;-1.790;2023-11-18T04:17:47;100763.13;;;10.42;100.00
78407;BME280;67692;51.074;-1.790;2023-11-18T04:20:14;100769.97;;;10.43;100.00
78407;BME280;67692;51.074;-1.790;2023-11-18T04:22:41;100749.97;;;10.46;100.00
78407;BME280;67692;51.074;-1.790;2023-11-18T04:25:10;100749.03;;;10.47;100.00
78407;BME280;67692;51.074;-1.790;2023-11-18T04:27:37;100725.84;;;10.45;100.00
78407;BME280;67692;51.074;-1.790;2023-11-18T04:30:05;100715.59;;;10.43;100.00
78407;BME280;67692;51.074;-1.790;2023-11-18T04:32:31;100737.44;;;10.52;100.00
78407;BME280;67692;51.074;-1.790;2023-11-18T04:34:58;100743.22;;;10.56;100.00
78407;BME280;67692;51.074;-1.790;2023-11-18T04:37:25;100725.84;;;10.58;100.00
78407;BME280;67692;51.074;-1.790;2023-11-18T04:39:51;100729.25;;;10.58;100.00
78407;BME280;67692;51.074;-1.790;2023-11-18T04:42:22;100704.19;;;10.59;100.00
78407;BME280;67692;51.074;-1.790;2023-11-18T04:44:48;100697.25;;;10.59;100.00
78407;BME280;67692;51.074;-1.790;2023-11-18T04:47:15;100680.88;;;10.59;100.00
78407;BME280;67692;51.074;-1.790;2023-11-18T04:49:43;100684.91;;;10.63;100.00
78407;BME280;67692;51.074;-1.790;2023-11-18T04:52:10;100684.81;;;10.64;100.00
78407;BME280;67692;51.074;-1.790;2023-11-18T04:54:36;100682.22;;;10.64;100.00
78407;BME280;67692;51.074;-1.790;2023-11-18T04:57:03;100677.88;;;10.65;100.00
78407;BME280;67692;51.074;-1.790;2023-11-18T04:59:31;100667.19;;;10.69;100.00
78407;BME280;67692;51.074;-1.790;2023-11-18T05:01:58;100665.41;;;10.70;100.00
78407;BME280;67692;51.074;-1.790;2023-11-18T05:04:24;100661.69;;;10.74;100.00
78407;BME280;67692;51.074;-1.790;2023-11-18T05:06:51;100671.00;;;10.77;100.00
78407;BME280;67692;51.074;-1.790;2023-11-18T05:09:17;100671.00;;;10.77;100.00
78407;BME280;67692;51.074;-1.790;2023-11-18T05:11:44;100657.00;;;10.79;100.00
78407;BME280;67692;51.074;-1.790;2023-11-18T05:14:11;100667.25;;;10.81;100.00
78407;BME280;67692;51.074;-1.790;2023-11-18T05:16:39;100645.38;;;10.85;100.00
78407;BME280;67692;51.074;-1.790;2023-11-18T05:19:06;100656.59;;;10.85;100.00
78407;BME280;67692;51.074;-1.790;2023-11-18T05:21:33;100653.66;;;10.90;100.00
78407;BME280;67692;51.074;-1.790;2023-11-18T05:23:59;100643.91;;;10.93;100.00
78407;BME280;67692;51.074;-1.790;2023-11-18T05:26:26;100624.00;;;10.94;100.00
78407;BME280;67692;51.074;-1.790;2023-11-18T05:28:53;100621.31;;;10.95;100.00
78407;BME280;67692;51.074;-1.790;2023-11-18T05:31:20;100614.25;;;10.97;100.00
78407;BME280;67692;51.074;-1.790;2023-11-18T05:33:47;100614.88;;;11.01;100.00
78407;BME280;67692;51.074;-1.790;2023-11-18T05:36:17;100604.41;;;11.02;100.00
78407;BME280;67692;51.074;-1.790;2023-11-18T05:38:52;100612.88;;;11.05;100.00
78407;BME280;67692;51.074;-1.790;2023-11-18T05:41:19;100618.06;;;11.05;100.00
78407;BME280;67692;51.074;-1.790;2023-11-18T05:43:53;100629.38;;;11.03;100.00
78407;BME280;67692;51.074;-1.790;2023-11-18T05:46:22;100624.78;;;11.07;100.00
78407;BME280;67692;51.074;-1.790;2023-11-18T05:48:52;100616.06;;;11.08;100.00
78407;BME280;67692;51.074;-1.790;2023-11-18T05:51:19;100612.19;;;11.14;100.00
78407;BME280;67692;51.074;-1.790;2023-11-18T05:53:47;100614.59;;;11.17;100.00
78407;BME280;67692;51.074;-1.790;2023-11-18T05:56:14;100597.16;;;11.19;100.00
78407;BME280;67692;51.074;-1.790;2023-11-18T05:58:42;100581.25;;;11.23;100.00
78407;BME280;67692;51.074;-1.790;2023-11-18T06:01:09;100590.59;;;11.26;100.00
78407;BME280;67692;51.074;-1.790;2023-11-18T06:03:36;100586.84;;;11.30;100.00
78407;BME280;67692;51.074;-1.790;2023-11-18T06:06:06;100578.59;;;11.36;100.00
78407;BME280;67692;51.074;-1.790;2023-11-18T06:08:33;100573.78;;;11.43;100.00
78407;BME280;67692;51.074;-1.790;2023-11-18T06:11:00;100553.41;;;11.49;100.00
78407;BME280;67692;51.074;-1.790;2023-11-18T06:13:30;100546.34;;;11.51;100.00
78407;BME280;67692;51.074;-1.790;2023-11-18T06:15:57;100558.97;;;11.56;100.00
78407;BME280;67692;51.074;-1.790;2023-11-18T06:18:24;100549.41;;;11.56;100.00
78407;BME280;67692;51.074;-1.790;2023-11-18T06:20:51;100552.50;;;11.61;100.00
78407;BME280;67692;51.074;-1.790;2023-11-18T06:23:19;100553.69;;;11.69;100.00
78407;BME280;67692;51.074;-1.790;2023-11-18T06:25:46;100555.81;;;11.75;100.00
78407;BME280;67692;51.074;-1.790;2023-11-18T06:28:13;100553.81;;;11.78;100.00
78407;BME280;67692;51.074;-1.790;2023-11-18T06:30:40;100557.97;;;11.81;100.00
78407;BME280;67692;51.074;-1.790;2023-11-18T06:33:07;100550.31;;;11.79;100.00
78407;BME280;67692;51.074;-1.790;2023-11-18T06:35:33;100546.66;;;11.82;100.00
78407;BME280;67692;51.074;-1.790;2023-11-18T06:38:00;100536.97;;;11.84;100.00
78407;BME280;67692;51.074;-1.790;2023-11-18T06:40:29;100537.47;;;11.89;100.00
78407;BME280;67692;51.074;-1.790;2023-11-18T06:42:55;100526.16;;;11.90;100.00
78407;BME280;67692;51.074;-1.790;2023-11-18T06:45:27;100514.13;;;11.89;100.00
78407;BME280;67692;51.074;-1.790;2023-11-18T06:47:57;100513.88;;;11.92;100.00
78407;BME280;67692;51.074;-1.790;2023-11-18T06:50:24;100520.47;;;11.96;100.00
78407;BME280;67692;51.074;-1.790;2023-11-18T06:52:52;100530.72;;;11.98;100.00
78407;BME280;67692;51.074;-1.790;2023-11-18T06:55:18;100535.09;;;11.97;100.00
78407;BME280;67692;51.074;-1.790;2023-11-18T06:57:47;100509.84;;;11.99;100.00
78407;BME280;67692;51.074;-1.790;2023-11-18T07:00:14;100517.28;;;12.04;100.00
78407;BME280;67692;51.074;-1.790;2023-11-18T07:02:41;100519.53;;;12.08;100.00
78407;BME280;67692;51.074;-1.790;2023-11-18T07:05:08;100500.41;;;12.09;100.00
78407;BME280;67692;51.074;-1.790;2023-11-18T07:07:34;100500.75;;;12.16;100.00
78407;BME280;67692;51.074;-1.790;2023-11-18T07:10:03;100496.41;;;12.16;100.00
78407;BME280;67692;51.074;-1.790;2023-11-18T07:12:32;100482.22;;;12.20;100.00
78407;BME280;67692;51.074;-1.790;2023-11-18T07:15:00;100483.88;;;12.21;100.00
78407;BME280;67692;51.074;-1.790;2023-11-18T07:17:27;100481.72;;;12.27;100.00
78407;BME280;67692;51.074;-1.790;2023-11-18T07:19:54;100491.88;;;12.30;100.00
78407;BME280;67692;51.074;-1.790;2023-11-18T07:22:20;100482.22;;;12.32;100.00
78407;BME280;67692;51.074;-1.790;2023-11-18T07:24:47;100485.38;;;12.35;100.00
78407;BME280;67692;51.074;-1.790;2023-11-18T07:27:13;100485.38;;;12.35;100.00
78407;BME280;67692;51.074;-1.790;2023-11-18T07:29:41;100475.81;;;12.36;100.00
78407;BME280;67692;51.074;-1.790;2023-11-18T07:32:11;100460.81;;;12.39;100.00
78407;BME280;67692;51.074;-1.790;2023-11-18T07:34:39;100467.53;;;12.42;100.00
78407;BME280;67692;51.074;-1.790;2023-11-18T07:37:06;100488.16;;;12.43;100.00
78407;BME280;67692;51.074;-1.790;2023-11-18T07:39:33;100504.34;;;12.47;100.00
78407;BME280;67692;51.074;-1.790;2023-11-18T07:42:10;100500.31;;;12.54;100.00
78407;BME280;67692;51.074;-1.790;2023-11-18T07:44:37;100492.38;;;12.56;100.00
78407;BME280;67692;51.074;-1.790;2023-11-18T07:47:05;100485.53;;;12.55;100.00
78407;BME280;67692;51.074;-1.790;2023-11-18T07:49:33;100481.88;;;12.57;100.00
78407;BME280;67692;51.074;-1.790;2023-11-18T07:52:00;100492.16;;;12.59;100.00
78407;BME280;67692;51.074;-1.790;2023-11-18T07:54:27;100492.16;;;12.59;100.00
78407;BME280;67692;51.074;-1.790;2023-11-18T07:56:54;100470.19;;;12.63;100.00
78407;BME280;67692;51.074;-1.790;2023-11-18T07:59:20;100471.69;;;12.65;100.00
78407;BME280;67692;51.074;-1.790;2023-11-18T08:01:47;100472.53;;;12.66;100.00
78407;BME280;67692;51.074;-1.790;2023-11-18T08:04:14;100474.28;;;12.65;100.00
78407;BME280;67692;51.074;-1.790;2023-11-18T08:06:41;100474.03;;;12.68;100.00
78407;BME280;67692;51.074;-1.790;2023-11-18T08:09:09;100466.81;;;12.72;100.00
78407;BME280;67692;51.074;-1.790;2023-11-18T08:11:38;100454.78;;;12.71;100.00
78407;BME280;67692;51.074;-1.790;2023-11-18T08:14:06;100463.16;;;12.74;100.00
78407;BME280;67692;51.074;-1.790;2023-11-18T08:16:33;100463.88;;;12.76;100.00
78407;BME280;67692;51.074;-1.790;2023-11-18T08:19:00;100474.25;;;12.76;100.00
78407;BME280;67692;51.074;-1.790;2023-11-18T08:21:27;100472.34;;;12.78;100.00
78407;BME280;67692;51.074;-1.790;2023-11-18T08:23:56;100478.69;;;12.86;100.00
78407;BME280;67692;51.074;-1.790;2023-11-18T08:26:25;100477.72;;;12.87;100.00
78407;BME280;67692;51.074;-1.790;2023-11-18T08:28:51;100489.91;;;12.86;100.00
78407;BME280;67692;51.074;-1.790;2023-11-18T08:31:18;100510.47;;;12.89;100.00
78407;BME280;67692;51.074;-1.790;2023-11-18T08:33:45;100501.47;;;12.93;100.00
78407;BME280;67692;51.074;-1.790;2023-11-18T08:36:11;100502.41;;;12.92;100.00
78407;BME280;67692;51.074;-1.790;2023-11-18T08:38:38;100484.78;;;12.96;100.00
78407;BME280;67692;51.074;-1.790;2023-11-18T08:41:10;100479.84;;;12.93;100.00
78407;BME280;67692;51.074;-1.790;2023-11-18T08:43:37;100470.13;;;12.95;100.00
78407;BME280;67692;51.074;-1.790;2023-11-18T08:46:06;100473.31;;;12.98;100.00
78407;BME280;67692;51.074;-1.790;2023-11-18T08:48:32;100476.94;;;13.07;100.00
78407;BME280;67692;51.074;-1.790;2023-11-18T08:51:00;100465.72;;;13.06;100.00
78407;BME280;67692;51.074;-1.790;2023-11-18T08:53:27;100443.13;;;13.07;100.00
78407;BME280;67692;51.074;-1.790;2023-11-18T08:55:53;100450.13;;;13.06;100.00
78407;BME280;67692;51.074;-1.790;2023-11-18T08:58:22;100450.94;;;13.07;100.00
78407;BME280;67692;51.074;-1.790;2023-11-18T09:00:53;100450.69;;;13.10;100.00
78407;BME280;67692;51.074;-1.790;2023-11-18T09:03:21;100435.91;;;13.10;100.00
78407;BME280;67692;51.074;-1.790;2023-11-18T09:05:50;100439.31;;;13.11;100.00
78407;BME280;67692;51.074;-1.790;2023-11-18T09:08:27;100446.03;;;13.14;100.00
78407;BME280;67692;51.074;-1.790;2023-11-18T09:10:55;100457.03;;;13.17;100.00
78407;BME280;67692;51.074;-1.790;2023-11-18T09:13:24;100461.88;;;13.22;100.00
78407;BME280;67692;51.074;-1.790;2023-11-18T09:15:54;100451.59;;;13.20;100.00
78407;BME280;67692;51.074;-1.790;2023-11-18T09:18:21;100456.53;;;13.23;100.00
78407;BME280;67692;51.074;-1.790;2023-11-18T09:20:48;100440.38;;;13.20;100.00
78407;BME280;67692;51.074;-1.790;2023-11-18T09:23:14;100440.25;;;13.21;100.00
78407;BME280;67692;51.074;-1.790;2023-11-18T09:25:42;100429.84;;;13.21;100.00
78407;BME280;67692;51.074;-1.790;2023-11-18T09:28:12;100444.50;;;13.22;100.00
78407;BME280;67692;51.074;-1.790;2023-11-18T09:30:41;100442.31;;;13.27;100.00
78407;BME280;67692;51.074;-1.790;2023-11-18T09:33:16;100453.53;;;13.28;100.00
78407;BME280;67692;51.074;-1.790;2023-11-18T09:35:51;100461.22;;;13.29;100.00
78407;BME280;67692;51.074;-1.790;2023-11-18T09:38:21;100466.53;;;13.28;100.00
78407;BME280;67692;51.074;-1.790;2023-11-18T09:40:49;100471.75;;;13.28;100.00
78407;BME280;67692;51.074;-1.790;2023-11-18T09:43:18;100474.59;;;13.25;100.00
78407;BME280;67692;51.074;-1.790;2023-11-18T09:45:48;100478.72;;;13.27;100.00
78407;BME280;67692;51.074;-1.790;2023-11-18T09:48:18;100474.47;;;13.26;100.00
78407;BME280;67692;51.074;-1.790;2023-11-18T09:50:51;100474.34;;;13.28;100.00
78407;BME280;67692;51.074;-1.790;2023-11-18T09:53:19;100477.75;;;13.28;100.00
78407;BME280;67692;51.074;-1.790;2023-11-18T09:55:51;100475.16;;;13.28;100.00
78407;BME280;67692;51.074;-1.790;2023-11-18T09:58:20;100456.13;;;13.28;100.00
78407;BME280;67692;51.074;-1.790;2023-11-18T10:00:54;100457.91;;;13.27;100.00
78407;BME280;67692;51.074;-1.790;2023-11-18T10:03:24;100466.19;;;13.32;100.00
78407;BME280;67692;51.074;-1.790;2023-11-18T10:05:51;100455.66;;;13.34;100.00
78407;BME280;67692;51.074;-1.790;2023-11-18T10:08:20;100453.88;;;13.34;100.00
78407;BME280;67692;51.074;-1.790;2023-11-18T10:10:51;100446.88;;;13.35;100.00
78407;BME280;67692;51.074;-1.790;2023-11-18T10:13:31;100462.50;;;13.35;100.00
78407;BME280;67692;51.074;-1.790;2023-11-18T10:16:01;100474.41;;;13.37;100.00
78407;BME280;67692;51.074;-1.790;2023-11-18T10:18:30;100479.34;;;13.40;100.00
78407;BME280;67692;51.074;-1.790;2023-11-18T10:21:00;100467.28;;;13.39;100.00
78407;BME280;67692;51.074;-1.790;2023-11-18T10:23:29;100474.13;;;13.40;100.00
78407;BME280;67692;51.074;-1.790;2023-11-18T10:25:59;100483.59;;;13.42;100.00
78407;BME280;67692;51.074;-1.790;2023-11-18T10:28:29;100502.50;;;13.44;100.00
78407;BME280;67692;51.074;-1.790;2023-11-18T10:30:58;100476.13;;;13.48;100.00
78407;BME280;67692;51.074;-1.790;2023-11-18T10:33:30;100476.66;;;13.52;100.00
78407;BME280;67692;51.074;-1.790;2023-11-18T10:35:58;100462.72;;;13.53;100.00
78407;BME280;67692;51.074;-1.790;2023-11-18T10:38:29;100464.34;;;13.54;100.00
78407;BME280;67692;51.074;-1.790;2023-11-18T10:40:56;100478.03;;;13.56;100.00
78407;BME280;67692;51.074;-1.790;2023-11-18T10:43:23;100477.09;;;13.57;100.00
78407;BME280;67692;51.074;-1.790;2023-11-18T10:45:52;100466.44;;;13.60;100.00
78407;BME280;67692;51.074;-1.790;2023-11-18T10:48:19;100473.16;;;13.62;100.00
78407;BME280;67692;51.074;-1.790;2023-11-18T10:50:49;100469.75;;;13.62;100.00
78407;BME280;67692;51.074;-1.790;2023-11-18T10:53:18;100463.31;;;13.66;100.00
78407;BME280;67692;51.074;-1.790;2023-11-18T10:55:44;100452.63;;;13.69;100.00
78407;BME280;67692;51.074;-1.790;2023-11-18T10:58:11;100468.56;;;13.76;100.00
78407;BME280;67692;51.074;-1.790;2023-11-18T11:00:47;100476.66;;;13.82;100.00
78407;BME280;67692;51.074;-1.790;2023-11-18T11:03:14;100485.84;;;13.86;100.00
78407;BME280;67692;51.074;-1.790;2023-11-18T11:05:41;100487.75;;;13.84;100.00
78407;BME280;67692;51.074;-1.790;2023-11-18T11:08:11;100477.34;;;13.84;100.00
78407;BME280;67692;51.074;-1.790;2023-11-18T11:10:40;100461.72;;;13.84;100.00
78407;BME280;67692;51.074;-1.790;2023-11-18T11:13:08;100462.25;;;13.78;100.00
78407;BME280;67692;51.074;-1.790;2023-11-18T11:15:40;100466.66;;;13.78;100.00
78407;BME280;67692;51.074;-1.790;2023-11-18T11:18:11;100458.97;;;13.76;100.00
78407;BME280;67692;51.074;-1.790;2023-11-18T11:20:45;100460.63;;;13.77;100.00
78407;BME280;67692;51.074;-1.790;2023-11-18T11:23:21;100476.25;;;13.77;100.00
78407;BME280;67692;51.074;-1.790;2023-11-18T11:26:01;100475.97;;;13.80;100.00
78407;BME280;67692;51.074;-1.790;2023-11-18T11:28:37;100459.25;;;13.83;100.00
78407;BME280;67692;51.074;-1.790;2023-11-18T11:31:16;100464.88;;;13.88;100.00
78407;BME280;67692;51.074;-1.790;2023-11-18T11:33:55;100466.41;;;13.90;100.00
78407;BME280;67692;51.074;-1.790;2023-11-18T11:36:28;100458.47;;;13.92;100.00
78407;BME280;67692;51.074;-1.790;2023-11-18T11:38:59;100453.97;;;13.94;100.00
78407;BME280;67692;51.074;-1.790;2023-11-18T11:41:27;100467.53;;;13.97;100.00
78407;BME280;67692;51.074;-1.790;2023-11-18T11:43:55;100486.97;;;14.03;100.00
78407;BME280;67692;51.074;-1.790;2023-11-18T11:46:25;100483.31;;;14.06;100.00
78407;BME280;67692;51.074;-1.790;2023-11-18T11:49:00;100451.13;;;14.07;100.00
78407;BME280;67692;51.074;-1.790;2023-11-18T11:51:30;100441.38;;;14.09;100.00
78407;BME280;67692;51.074;-1.790;2023-11-18T11:54:02;100412.47;;;14.12;100.00
78407;BME280;67692;51.074;-1.790;2023-11-18T11:56:41;100434.94;;;14.13;100.00
78407;BME280;67692;51.074;-1.790;2023-11-18T11:59:08;100442.22;;;14.19;100.00
78407;BME280;67692;51.074;-1.790;2023-11-18T12:01:37;100435.78;;;14.23;100.00
78407;BME280;67692;51.074;-1.790;2023-11-18T12:04:04;100438.53;;;14.21;100.00
78407;BME280;67692;51.074;-1.790;2023-11-18T12:06:33;100442.63;;;14.24;100.00
78407;BME280;67692;51.074;-1.790;2023-11-18T12:09:03;100435.50;;;14.26;100.00
78407;BME280;67692;51.074;-1.790;2023-11-18T12:11:33;100453.75;;;14.26;100.00
78407;BME280;67692;51.074;-1.790;2023-11-18T12:14:03;100469.38;;;14.26;100.00
78407;BME280;67692;51.074;-1.790;2023-11-18T12:17:00;100465.94;;;14.25;100.00
78407;BME280;67692;51.074;-1.790;2023-11-18T12:19:34;100445.09;;;14.25;100.00
78407;BME280;67692;51.074;-1.790;2023-11-18T12:22:12;100442.34;;;14.27;100.00
78407;BME280;67692;51.074;-1.790;2023-11-18T12:28:15;100460.06;;;14.33;100.00
78407;BME280;67692;51.074;-1.790;2023-11-18T12:30:43;100463.50;;;14.34;100.00
78407;BME280;67692;51.074;-1.790;2023-11-18T12:33:18;100458.00;;;14.37;100.00
78407;BME280;67692;51.074;-1.790;2023-11-18T12:39:26;100448.94;;;14.31;100.00
78407;BME280;67692;51.074;-1.790;2023-11-18T12:42:03;100442.66;;;14.34;100.00
78407;BME280;67692;51.074;-1.790;2023-11-18T12:44:36;100442.78;;;14.32;100.00
78407;BME280;67692;51.074;-1.790;2023-11-18T12:47:05;100447.16;;;14.32;100.00